Time;durP1;ratioP1;P1;durP2;ratioP2;P2;SDS_P1;SDS_P2;PMS_P1;PMS_P2;Temp;Humidity;BMP_temperature;BMP_pressure;BME280_temperature;BME280_humidity;BME280_pressure;Samples;Min_cycle;Max_cycle;Signal;HPM_P1;HPM_P2
2022/06/25 00:00:36;;;;;;;1999.90;999.90;;;17.30;99.90;;;;;;5025618;28;20030;-80
2022/06/25 00:03:01;;;;;;;1999.90;999.90;;;17.30;99.90;;;;;;5014255;28;20033;-74
2022/06/25 00:05:27;;;;;;;1999.90;999.90;;;17.30;99.90;;;;;;5014335;28;20070;-80
2022/06/25 00:07:53;;;;;;;1999.90;999.90;;;17.30;99.90;;;;;;5006444;28;20423;-79
2022/06/25 00:10:18;;;;;;;1999.90;999.90;;;17.30;99.90;;;;;;5033764;28;20021;-74
2022/06/25 00:12:44;;;;;;;1999.90;999.90;;;17.30;99.90;;;;;;5033589;28;20025;-81
2022/06/25 00:15:10;;;;;;;1999.90;999.90;;;17.30;99.90;;;;;;5033740;28;20029;-80
2022/06/25 00:17:36;;;;;;;1999.90;999.90;;;17.30;99.90;;;;;;5033623;28;20064;-73
2022/06/25 00:20:03;;;;;;;1999.90;999.90;;;17.30;99.90;;;;;;5033621;28;20021;-74
2022/06/25 00:22:28;;;;;;;1999.90;999.90;;;17.30;99.90;;;;;;5014891;28;20095;-74
2022/06/25 00:24:54;;;;;;;1999.90;999.90;;;17.30;99.90;;;;;;5033450;28;20116;-80
2022/06/25 00:27:20;;;;;;;1999.90;999.90;;;17.30;99.90;;;;;;5031941;28;20037;-74
2022/06/25 00:29:46;;;;;;;1999.90;999.90;;;17.30;99.90;;;;;;5016195;28;20018;-80
2022/06/25 00:32:11;;;;;;;1999.90;999.90;;;17.30;99.90;;;;;;5013585;28;20056;-74
2022/06/25 00:34:38;;;;;;;1999.90;999.90;;;17.30;99.90;;;;;;5012267;28;20022;-73
2022/06/25 00:37:04;;;;;;;1999.90;999.90;;;17.30;99.90;;;;;;4995864;28;20045;-80
2022/06/25 00:39:30;;;;;;;1999.90;999.90;;;17.30;99.90;;;;;;5030472;28;20021;-80
2022/06/25 00:41:56;;;;;;;1999.90;999.90;;;17.30;99.90;;;;;;5032824;28;20519;-73
2022/06/25 00:44:21;;;;;;;1999.90;999.90;;;17.30;99.90;;;;;;5033258;28;20503;-73
2022/06/25 00:46:47;;;;;;;1999.90;999.90;;;17.30;99.90;;;;;;5014573;28;20498;-73
2022/06/25 00:49:14;;;;;;;1999.90;999.90;;;17.30;99.90;;;;;;5033157;28;20025;-80
2022/06/25 00:51:41;;;;;;;1999.90;999.90;;;17.30;99.90;;;;;;5033108;28;20041;-79
2022/06/25 00:54:09;;;;;;;1999.90;999.90;;;17.20;99.90;;;;;;5033132;28;20084;-79
2022/06/25 00:56:47;;;;;;;1999.90;999.90;;;17.10;99.90;;;;;;5006633;28;20033;-79
2022/06/25 00:59:14;;;;;;;1999.90;999.90;;;17.10;99.90;;;;;;5016824;28;20025;-79
2022/06/25 01:01:40;;;;;;;1999.90;999.90;;;17.10;99.90;;;;;;5032452;28;20025;-73
2022/06/25 01:04:05;;;;;;;1999.90;999.90;;;17.10;99.90;;;;;;5032710;28;20373;-79
2022/06/25 01:06:31;;;;;;;1999.90;999.90;;;17.10;99.90;;;;;;5032827;28;20049;-79
2022/06/25 01:08:58;;;;;;;1999.90;999.90;;;17.10;99.90;;;;;;5032494;28;20032;-79
2022/06/25 01:11:24;;;;;;;1999.90;999.90;;;17.00;99.90;;;;;;5032841;28;20021;-80
2022/06/25 01:13:51;;;;;;;1999.90;999.90;;;17.00;99.90;;;;;;5026447;28;20456;-73
2022/06/25 01:16:16;;;;;;;1999.90;999.90;;;17.00;99.90;;;;;;5012890;28;20572;-80
2022/06/25 01:18:42;;;;;;;1999.90;999.90;;;16.90;99.90;;;;;;5029671;28;20056;-80
2022/06/25 01:21:07;;;;;;;1999.90;999.90;;;17.00;99.90;;;;;;5032344;28;20033;-79
2022/06/25 01:23:33;;;;;;;1999.90;999.90;;;16.90;99.90;;;;;;5032471;28;20492;-80
2022/06/25 01:25:59;;;;;;;1999.90;999.90;;;16.90;99.90;;;;;;5032832;28;20032;-73
2022/06/25 01:28:25;;;;;;;1999.90;999.90;;;16.90;99.90;;;;;;5032283;28;20017;-79
2022/06/25 01:30:50;;;;;;;1999.90;999.90;;;16.90;99.90;;;;;;5032684;28;20033;-79
2022/06/25 01:33:16;;;;;;;1999.90;999.90;;;16.90;99.90;;;;;;5032250;28;20400;-79
2022/06/25 01:35:42;;;;;;;1999.90;999.90;;;16.90;99.90;;;;;;5032220;28;20496;-78
2022/06/25 01:38:07;;;;;;;1999.90;999.90;;;16.90;99.90;;;;;;5014344;28;20017;-72
2022/06/25 01:40:33;;;;;;;1999.90;999.90;;;16.90;99.90;;;;;;5014868;28;20045;-78
2022/06/25 01:43:00;;;;;;;1999.90;999.90;;;16.90;99.90;;;;;;5009876;28;20022;-78
2022/06/25 01:45:30;;;;;;;1999.90;999.90;;;16.90;99.90;;;;;;5011515;28;20026;-78
2022/06/25 01:47:56;;;;;;;1999.90;999.90;;;16.90;99.90;;;;;;5030991;28;20018;-78
2022/06/25 01:50:22;;;;;;;1999.90;999.90;;;16.80;99.90;;;;;;5032246;28;20022;-72
2022/06/25 01:52:48;;;;;;;1999.90;999.90;;;16.80;99.90;;;;;;5014316;28;20076;-72
2022/06/25 01:55:15;;;;;;;1999.90;999.90;;;16.80;99.90;;;;;;5032600;28;20451;-78
2022/06/25 01:57:41;;;;;;;1999.90;999.90;;;16.80;99.90;;;;;;5030269;28;20423;-78
2022/06/25 02:00:10;;;;;;;1999.90;999.90;;;16.80;99.90;;;;;;5019750;28;20029;-78
2022/06/25 02:02:37;;;;;;;1999.90;999.90;;;16.80;99.90;;;;;;5030596;28;20032;-78
2022/06/25 02:05:04;;;;;;;1999.90;999.90;;;16.80;99.90;;;;;;5032438;28;20033;-72
2022/06/25 02:07:30;;;;;;;1999.90;999.90;;;16.80;99.90;;;;;;5031851;28;20029;-78
2022/06/25 02:09:56;;;;;;;1999.90;999.90;;;16.80;99.90;;;;;;5032335;28;20025;-78
2022/06/25 02:12:22;;;;;;;1999.90;999.90;;;16.70;99.90;;;;;;5014435;28;20014;-74
2022/06/25 02:14:48;;;;;;;1999.90;999.90;;;16.70;99.90;;;;;;5013474;28;20396;-78
2022/06/25 02:17:13;;;;;;;1999.90;999.90;;;16.70;99.90;;;;;;5019946;28;20060;-79
2022/06/25 02:19:39;;;;;;;1999.90;999.90;;;16.70;99.90;;;;;;5014488;28;20507;-73
2022/06/25 02:22:05;;;;;;;1999.90;999.90;;;16.70;99.90;;;;;;5033850;28;20033;-79
2022/06/25 02:24:31;;;;;;;1999.90;999.90;;;16.70;99.90;;;;;;5035953;28;20065;-78
2022/06/25 02:26:57;;;;;;;1999.90;999.90;;;16.60;99.90;;;;;;5036066;28;20104;-78
2022/06/25 02:29:23;;;;;;;1999.90;999.90;;;16.70;99.90;;;;;;5035875;28;20507;-78
2022/06/25 02:31:49;;;;;;;1999.90;999.90;;;16.60;99.90;;;;;;5029808;28;20021;-78
2022/06/25 02:34:14;;;;;;;1999.90;999.90;;;16.60;99.90;;;;;;5015946;28;20390;-79
2022/06/25 02:36:40;;;;;;;1999.90;999.90;;;16.60;99.90;;;;;;5015057;28;20022;-80
2022/06/25 02:39:06;;;;;;;1999.90;999.90;;;16.60;99.90;;;;;;5012246;28;20036;-79
2022/06/25 02:41:31;;;;;;;1999.90;999.90;;;16.20;99.90;;;;;;5028305;28;20030;-80
2022/06/25 02:43:57;;;;;;;1999.90;999.90;;;16.10;99.90;;;;;;5026985;28;20036;-73
2022/06/25 02:46:23;;;;;;;1999.90;999.90;;;16.10;99.90;;;;;;5034948;28;20021;-74
2022/06/25 02:48:48;;;;;;;1999.90;999.90;;;16.10;99.90;;;;;;5035512;28;20025;-80
2022/06/25 02:51:14;;;;;;;1999.90;999.90;;;16.20;99.90;;;;;;5035065;28;20030;-80
2022/06/25 02:53:40;;;;;;;1999.90;999.90;;;16.20;99.90;;;;;;5035454;28;20026;-80
2022/06/25 02:58:54;;;;;;;1999.90;999.90;;;16.20;99.90;;;;;;5017678;28;20118;-80
2022/06/25 03:01:21;;;;;;;1999.90;999.90;;;16.20;99.90;;;;;;5025347;28;20080;-79
2022/06/25 03:03:46;;;;;;;1999.90;999.90;;;16.20;99.90;;;;;;5014877;28;20026;-73
2022/06/25 03:06:12;;;;;;;1999.90;999.90;;;16.20;99.90;;;;;;5015308;28;20048;-79
2022/06/25 03:08:38;;;;;;;1999.90;999.90;;;16.10;99.90;;;;;;5015074;28;20034;-73
2022/06/25 03:11:04;;;;;;;1999.90;999.90;;;15.90;99.90;;;;;;5015283;28;20088;-73
2022/06/25 03:13:31;;;;;;;1999.90;999.90;;;15.90;99.90;;;;;;5030695;28;20033;-80
2022/06/25 03:15:57;;;;;;;1999.90;999.90;;;15.80;99.90;;;;;;5034827;28;20059;-80
2022/06/25 03:18:23;;;;;;;1999.90;999.90;;;15.50;99.90;;;;;;5034816;28;20053;-73
2022/06/25 03:20:50;;;;;;;1999.90;999.90;;;15.40;99.90;;;;;;5034817;28;20029;-77
2022/06/25 03:23:16;;;;;;;1999.90;999.90;;;15.40;99.90;;;;;;5034303;28;20029;-72
2022/06/25 03:25:42;;;;;;;1999.90;999.90;;;15.40;99.90;;;;;;5034810;28;20026;-79
2022/06/25 03:28:08;;;;;;;1999.90;999.90;;;15.50;99.90;;;;;;5034189;28;20029;-79
2022/06/25 03:30:33;;;;;;;1999.90;999.90;;;15.40;99.90;;;;;;5034779;28;20049;-79
2022/06/25 03:32:59;;;;;;;1999.90;999.90;;;15.40;99.90;;;;;;5033798;28;20079;-73
2022/06/25 03:35:25;;;;;;;1999.90;999.90;;;15.40;99.90;;;;;;5034554;28;20025;-73
2022/06/25 03:37:50;;;;;;;1999.90;999.90;;;15.40;99.90;;;;;;5030332;28;20030;-79
2022/06/25 03:40:17;;;;;;;1999.90;999.90;;;15.40;99.90;;;;;;5014810;28;20029;-79
2022/06/25 03:42:43;;;;;;;1999.90;999.90;;;15.40;99.90;;;;;;5031416;28;20029;-79
2022/06/25 03:45:09;;;;;;;1999.90;999.90;;;15.40;99.90;;;;;;5034406;28;20075;-79
2022/06/25 03:47:35;;;;;;;1999.90;999.90;;;15.40;99.90;;;;;;5021351;28;20032;-79
2022/06/25 03:50:01;;;;;;;1999.90;999.90;;;15.40;99.90;;;;;;5034406;28;20026;-72
2022/06/25 03:52:27;;;;;;;1999.90;999.90;;;15.50;99.90;;;;;;5033981;28;20103;-78
2022/06/25 03:54:52;;;;;;;1999.90;999.90;;;15.50;99.90;;;;;;5016480;28;20030;-77
2022/06/25 03:57:18;;;;;;;1999.90;999.90;;;15.50;99.90;;;;;;5034054;28;20037;-77
2022/06/25 03:59:43;;;;;;;1999.90;999.90;;;15.50;99.90;;;;;;5034123;28;20026;-72
2022/06/25 04:02:09;;;;;;;1999.90;999.90;;;15.50;99.90;;;;;;5033932;28;20068;-72
2022/06/25 04:04:35;;;;;;;1999.90;999.90;;;15.40;99.90;;;;;;5033526;28;20025;-77
2022/06/25 04:07:00;;;;;;;1999.90;999.90;;;15.50;99.90;;;;;;5033494;28;20061;-78
2022/06/25 04:09:26;;;;;;;1999.90;999.90;;;15.50;99.90;;;;;;5034020;28;20450;-78
2022/06/25 04:11:52;;;;;;;1999.90;999.90;;;15.50;99.90;;;;;;5031619;28;20029;-77
2022/06/25 04:14:17;;;;;;;1999.90;999.90;;;15.50;99.90;;;;;;5013759;28;20018;-72
2022/06/25 04:16:43;;;;;;;1999.90;999.90;;;15.50;99.90;;;;;;5013491;28;20459;-73
2022/06/25 04:19:08;;;;;;;1999.90;999.90;;;15.50;99.90;;;;;;5014138;28;20018;-79
2022/06/25 04:21:34;;;;;;;1999.90;999.90;;;15.50;99.90;;;;;;5013525;28;20458;-78
2022/06/25 04:24:00;;;;;;;1999.90;999.90;;;15.50;99.90;;;;;;5014162;28;20418;-79
2022/06/25 04:26:26;;;;;;;1999.90;999.90;;;15.40;99.90;;;;;;5013722;28;20025;-78
2022/06/25 04:29:03;;;;;;;1999.90;999.90;;;15.20;99.90;;;;;;5023458;28;20013;-73
2022/06/25 04:31:30;;;;;;;1999.90;999.90;;;15.10;99.90;;;;;;5032938;28;20116;-73
2022/06/25 04:33:55;;;;;;;1999.90;999.90;;;15.10;99.90;;;;;;5015546;28;20021;-78
2022/06/25 04:36:21;;;;;;;1999.90;999.90;;;15.10;99.90;;;;;;5033371;28;20025;-78
2022/06/25 04:38:47;;;;;;;1999.90;999.90;;;14.90;99.90;;;;;;5021894;28;20022;-78
2022/06/25 04:41:12;;;;;;;1999.90;999.90;;;14.90;99.90;;;;;;5018067;28;20108;-73
2022/06/25 04:43:38;;;;;;;1999.90;999.90;;;14.90;99.90;;;;;;5014792;28;20116;-78
2022/06/25 04:46:04;;;;;;;1999.90;999.90;;;14.90;99.90;;;;;;5028489;28;20034;-78
2022/06/25 04:48:29;;;;;;;1999.90;999.90;;;14.90;99.90;;;;;;5025121;28;20017;-77
2022/06/25 04:50:55;;;;;;;1999.90;999.90;;;14.90;99.90;;;;;;5033094;28;20033;-77
2022/06/25 04:53:21;;;;;;;1999.90;999.90;;;14.90;99.90;;;;;;5033090;28;20032;-72
2022/06/25 04:55:46;;;;;;;1999.90;999.90;;;14.90;99.90;;;;;;5030814;28;20056;-72
2022/06/25 04:58:12;;;;;;;1999.90;999.90;;;14.90;99.90;;;;;;5013495;28;20401;-78
2022/06/25 05:00:38;;;;;;;1999.90;999.90;;;14.80;99.90;;;;;;5028185;28;20083;-77
2022/06/25 05:03:04;;;;;;;1999.90;999.90;;;14.90;99.90;;;;;;5032723;28;20029;-78
2022/06/25 05:05:29;;;;;;;1999.90;999.90;;;14.90;99.90;;;;;;5032975;28;20152;-77
2022/06/25 05:07:55;;;;;;;1999.90;999.90;;;14.90;99.90;;;;;;5032824;28;20033;-78
2022/06/25 05:10:21;;;;;;;1999.90;999.90;;;15.00;99.90;;;;;;5032874;28;20030;-78
2022/06/25 05:15:30;;;;;;;1999.90;999.90;;;15.00;99.90;;;;;;5032549;28;20036;-73
2022/06/25 05:17:56;;;;;;;1999.90;999.90;;;15.00;99.90;;;;;;5032710;28;20025;-73
2022/06/25 05:20:22;;;;;;;1999.90;999.90;;;15.00;99.90;;;;;;5032649;28;20092;-73
2022/06/25 05:22:48;;;;;;;1999.90;999.90;;;15.00;99.90;;;;;;5032191;28;20101;-78
2022/06/25 05:25:14;;;;;;;1999.90;999.90;;;15.10;99.90;;;;;;5032792;28;20032;-79
2022/06/25 05:27:39;;;;;;;1999.90;999.90;;;15.10;99.90;;;;;;5032240;28;20018;-78
2022/06/25 05:30:06;;;;;;;1999.90;999.90;;;15.10;99.90;;;;;;5029916;28;20033;-73
2022/06/25 05:32:31;;;;;;;1999.90;999.90;;;15.20;99.90;;;;;;5032287;28;20034;-73
2022/06/25 05:34:57;;;;;;;1999.90;999.90;;;15.20;99.90;;;;;;5032468;28;20021;-73
2022/06/25 05:37:24;;;;;;;1999.90;999.90;;;15.20;99.90;;;;;;5014263;28;20114;-78
2022/06/25 05:39:50;;;;;;;1999.90;999.90;;;15.20;99.90;;;;;;4995007;28;20025;-78
2022/06/25 05:42:16;;;;;;;1999.90;999.90;;;15.20;99.90;;;;;;5026216;28;20100;-79
2022/06/25 05:44:43;;;;;;;1999.90;999.90;;;15.00;99.90;;;;;;5027659;28;20113;-73
2022/06/25 05:47:09;;;;;;;1999.90;999.90;;;15.00;99.90;;;;;;5025928;28;20543;-73
2022/06/25 05:49:35;;;;;;;1999.90;999.90;;;15.00;99.90;;;;;;5032381;28;20113;-79
2022/06/25 05:52:01;;;;;;;1999.90;999.90;;;15.00;99.90;;;;;;5032131;28;20071;-79
2022/06/25 05:54:27;;;;;;;1999.90;999.90;;;15.00;99.90;;;;;;5032568;28;20033;-80
2022/06/25 05:56:53;;;;;;;1999.90;999.90;;;14.90;99.90;;;;;;5035992;28;20061;-80
2022/06/25 05:59:18;;;;;;;1999.90;999.90;;;14.80;99.90;;;;;;5028560;28;20050;-73
2022/06/25 06:01:44;;;;;;;1999.90;999.90;;;14.80;99.90;;;;;;5016937;28;20033;-79
2022/06/25 06:04:09;;;;;;;1999.90;999.90;;;14.80;99.90;;;;;;5016296;28;20472;-80
2022/06/25 06:06:35;;;;;;;1999.90;999.90;;;14.90;99.90;;;;;;5011600;28;20110;-77
2022/06/25 06:09:01;;;;;;;1999.90;999.90;;;14.80;99.90;;;;;;5036122;28;20034;-79
2022/06/25 06:11:26;;;;;;;1999.90;999.90;;;14.90;99.90;;;;;;5035940;28;20084;-73
2022/06/25 06:13:52;;;;;;;1999.90;999.90;;;14.80;99.90;;;;;;5036058;28;20029;-72
2022/06/25 06:16:18;;;;;;;1999.90;999.90;;;14.80;99.90;;;;;;5035807;28;20500;-79
2022/06/25 06:18:43;;;;;;;1999.90;999.90;;;14.70;99.90;;;;;;5036109;28;20036;-73
2022/06/25 06:21:09;;;;;;;1999.90;999.90;;;14.70;99.90;;;;;;5017579;28;20567;-77
2022/06/25 06:23:34;;;;;;;1999.90;999.90;;;14.70;99.90;;;;;;5035788;28;20033;-72
2022/06/25 06:26:00;;;;;;;1999.90;999.90;;;14.70;99.90;;;;;;5035154;28;20026;-72
2022/06/25 06:28:26;;;;;;;1999.90;999.90;;;14.70;99.90;;;;;;5016788;28;20420;-71
2022/06/25 06:30:51;;;;;;;1999.90;999.90;;;14.60;99.90;;;;;;5036049;28;20396;-77
2022/06/25 06:33:17;;;;;;;1999.90;999.90;;;14.70;99.90;;;;;;5035273;28;20062;-72
2022/06/25 06:35:43;;;;;;;1999.90;999.90;;;14.80;99.90;;;;;;5018023;28;20611;-73
2022/06/25 06:38:08;;;;;;;1999.90;999.90;;;14.70;99.90;;;;;;5035069;28;20053;-72
2022/06/25 06:40:34;;;;;;;1999.90;999.90;;;14.70;99.90;;;;;;5035343;28;20032;-78
2022/06/25 06:43:00;;;;;;;1999.90;999.90;;;14.80;99.90;;;;;;5016019;28;20420;-77
2022/06/25 06:45:26;;;;;;;1999.90;999.90;;;14.80;99.90;;;;;;5026308;28;20488;-77
2022/06/25 06:47:52;;;;;;;1999.90;999.90;;;14.80;99.90;;;;;;5034956;28;20026;-78
2022/06/25 06:50:18;;;;;;;1999.90;999.90;;;14.80;99.90;;;;;;5035657;28;20024;-72
2022/06/25 06:52:44;;;;;;;1999.90;999.90;;;14.70;99.90;;;;;;5034866;28;20037;-79
2022/06/25 06:55:09;;;;;;;1999.90;999.90;;;14.70;99.90;;;;;;5035602;28;20063;-78
2022/06/25 06:57:35;;;;;;;1999.90;999.90;;;14.70;99.90;;;;;;5019037;28;20029;-72
2022/06/25 07:00:06;;;;;;;1999.90;999.90;;;14.80;99.90;;;;;;5006646;28;20022;-78
2022/06/25 07:02:32;;;;;;;1999.90;999.90;;;14.70;99.90;;;;;;5021744;28;20057;-78
2022/06/25 07:04:58;;;;;;;1999.90;999.90;;;14.80;99.90;;;;;;5035302;28;20034;-72
2022/06/25 07:07:23;;;;;;;1999.90;999.90;;;14.80;99.90;;;;;;5016004;28;20106;-78
2022/06/25 07:09:49;;;;;;;1999.90;999.90;;;14.80;99.90;;;;;;5035450;28;20029;-73
2022/06/25 07:12:15;;;;;;;1999.90;999.90;;;14.80;99.90;;;;;;5034541;28;20381;-77
2022/06/25 07:14:41;;;;;;;1999.90;999.90;;;14.90;99.90;;;;;;5034146;28;20474;-77
2022/06/25 07:17:06;;;;;;;1999.90;999.90;;;15.00;99.90;;;;;;5034606;28;20038;-73
2022/06/25 07:19:32;;;;;;;1999.90;999.90;;;15.00;99.90;;;;;;5035079;28;20022;-72
2022/06/25 07:21:58;;;;;;;1999.90;999.90;;;15.00;99.90;;;;;;5034345;28;20021;-78
2022/06/25 07:24:24;;;;;;;1999.90;999.90;;;15.00;99.90;;;;;;5017147;28;20033;-72
2022/06/25 07:26:50;;;;;;;1999.90;999.90;;;15.10;99.90;;;;;;5029994;28;20014;-78
2022/06/25 07:29:16;;;;;;;1999.90;999.90;;;14.90;99.90;;;;;;5010529;28;20396;-78
2022/06/25 07:31:42;;;;;;;1999.90;999.90;;;14.90;99.90;;;;;;5034690;28;20050;-73
2022/06/25 07:34:07;;;;;;;1999.90;999.90;;;14.90;99.90;;;;;;5016822;28;20064;-78
2022/06/25 07:36:33;;;;;;;1999.90;999.90;;;14.50;99.90;;;;;;5034372;28;20029;-77
2022/06/25 07:39:00;;;;;;;1999.90;999.90;;;14.40;99.90;;;;;;5032448;28;20511;-77
2022/06/25 07:41:27;;;;;;;1999.90;999.90;;;14.60;99.90;;;;;;5033441;28;20415;-72
2022/06/25 07:43:52;;;;;;;1999.90;999.90;;;14.50;99.90;;;;;;5022597;28;20026;-72
2022/06/25 07:46:19;;;;;;;1999.90;999.90;;;14.50;99.90;;;;;;5031989;28;20100;-77
2022/06/25 07:48:45;;;;;;;1999.90;999.90;;;14.60;99.90;;;;;;5034625;28;20025;-77
2022/06/25 07:53:55;;;;;;;1999.90;999.90;;;14.90;99.90;;;;;;5035809;28;20040;-78
2022/06/25 07:56:22;;;;;;;1999.90;999.90;;;15.00;99.90;;;;;;5026622;28;20485;-78
2022/06/25 07:58:48;;;;;;;1999.90;999.90;;;15.00;99.90;;;;;;5014763;28;20378;-78
2022/06/25 08:01:13;;;;;;;1999.90;999.90;;;15.10;99.90;;;;;;5025059;28;20032;-79
2022/06/25 08:03:39;;;;;;;1999.90;999.90;;;15.20;99.90;;;;;;5036698;28;20065;-79
2022/06/25 08:06:05;;;;;;;1999.90;999.90;;;15.20;99.90;;;;;;5036983;28;20120;-78
2022/06/25 08:08:31;;;;;;;1999.90;999.90;;;15.30;99.90;;;;;;5035152;28;20029;-72
2022/06/25 08:10:57;;;;;;;1999.90;999.90;;;15.40;99.90;;;;;;5014372;28;20508;-72
2022/06/25 08:13:22;;;;;;;1999.90;999.90;;;15.30;99.90;;;;;;5015346;28;20402;-78
2022/06/25 08:15:49;;;;;;;1999.90;999.90;;;15.10;99.90;;;;;;5021892;28;20021;-77
2022/06/25 08:18:15;;;;;;;1999.90;999.90;;;15.00;99.90;;;;;;5035584;28;20021;-78
2022/06/25 08:20:41;;;;;;;1999.90;999.90;;;14.80;99.90;;;;;;5036292;28;20436;-72
2022/06/25 08:23:07;;;;;;;1999.90;999.90;;;14.90;99.90;;;;;;5034666;28;20455;-72
2022/06/25 08:25:32;;;;;;;1999.90;999.90;;;14.90;99.90;;;;;;5035321;28;20045;-79
2022/06/25 08:27:58;;;;;;;1999.90;999.90;;;15.00;99.90;;;;;;5030131;28;20426;-78
2022/06/25 08:30:24;;;;;;;1999.90;999.90;;;15.10;99.90;;;;;;5006458;28;20057;-79
2022/06/25 08:32:50;;;;;;;1999.90;999.90;;;15.30;99.90;;;;;;5034563;28;20029;-78
2022/06/25 08:35:16;;;;;;;1999.90;999.90;;;15.30;99.90;;;;;;5036017;28;20096;-72
2022/06/25 08:37:46;;;;;;;1999.90;999.90;;;15.30;99.90;;;;;;5034183;28;20044;-72
2022/06/25 08:40:13;;;;;;;1999.90;999.90;;;15.10;99.90;;;;;;5033847;28;20500;-78
2022/06/25 08:42:39;;;;;;;1999.90;999.90;;;14.90;99.90;;;;;;5017341;28;20053;-78
2022/06/25 08:45:05;;;;;;;1999.90;999.90;;;14.90;99.90;;;;;;5026254;28;20070;-78
2022/06/25 08:47:31;;;;;;;1999.90;999.90;;;15.00;99.90;;;;;;5032084;28;20021;-72
2022/06/25 08:49:58;;;;;;;1999.90;999.90;;;15.00;99.90;;;;;;5015478;28;20022;-72
2022/06/25 08:52:27;;;;;;;1999.90;999.90;;;15.00;99.90;;;;;;5032789;28;20025;-72
2022/06/25 08:54:54;;;;;;;1999.90;999.90;;;15.20;99.90;;;;;;5033174;28;20017;-79
2022/06/25 08:57:20;;;;;;;1999.90;999.90;;;15.20;99.90;;;;;;5017980;28;20033;-79
2022/06/25 08:59:46;;;;;;;1999.90;999.90;;;15.10;99.90;;;;;;5022055;28;20029;-73
2022/06/25 09:02:11;;;;;;;1999.90;999.90;;;15.10;99.90;;;;;;5033070;28;20083;-73
2022/06/25 09:04:37;;;;;;;1999.90;999.90;;;15.20;99.90;;;;;;5023855;28;20038;-80
2022/06/25 09:07:13;;;;;;;1999.90;999.90;;;15.40;99.90;;;;;;5012623;28;20038;-81
2022/06/25 09:09:40;;;;;;;1999.90;999.90;;;15.30;99.90;;;;;;5012650;28;20167;-81
2022/06/25 09:12:10;;;;;;;1999.90;999.90;;;15.30;99.90;;;;;;5032651;28;20025;-81
2022/06/25 09:14:37;;;;;;;1999.90;999.90;;;15.40;99.90;;;;;;5033241;28;20412;-73
2022/06/25 09:17:05;;;;;;;1999.90;999.90;;;15.40;99.90;;;;;;5032201;28;20033;-81
2022/06/25 09:19:36;;;;;;;1999.90;999.90;;;15.50;99.90;;;;;;5032828;28;20025;-81
2022/06/25 09:22:08;;;;;;;1999.90;999.90;;;15.50;99.90;;;;;;5032033;28;20025;-73
2022/06/25 09:24:57;;;;;;;1999.90;999.90;;;15.40;99.90;;;;;;5015121;28;20112;-81
2022/06/25 09:27:33;;;;;;;1999.90;999.90;;;15.40;99.90;;;;;;5012968;28;20014;-81
2022/06/25 09:30:08;;;;;;;1999.90;999.90;;;15.40;99.90;;;;;;5030365;28;20117;-81
2022/06/25 09:32:45;;;;;;;1999.90;999.90;;;15.50;99.90;;;;;;5032310;28;20458;-79
2022/06/25 09:35:12;;;;;;;1999.90;999.90;;;15.50;99.90;;;;;;5032714;28;20029;-81
2022/06/25 09:37:39;;;;;;;1999.90;999.90;;;15.60;99.90;;;;;;5032082;28;20074;-81
2022/06/25 09:40:05;;;;;;;1999.90;999.90;;;15.60;99.90;;;;;;5032445;28;20096;-73
2022/06/25 09:42:33;;;;;;;1999.90;999.90;;;15.40;99.90;;;;;;5017160;28;20028;-73
2022/06/25 09:45:06;;;;;;;1999.90;999.90;;;15.20;99.90;;;;;;5019583;28;20392;-81
2022/06/25 09:47:44;;;;;;;1999.90;999.90;;;15.30;99.90;;;;;;5019723;28;20100;-81
2022/06/25 09:50:18;;;;;;;1999.90;999.90;;;15.40;99.90;;;;;;5032480;28;20026;-81
2022/06/25 09:52:59;;;;;;;1999.90;999.90;;;15.40;99.90;;;;;;5014377;28;20551;-73
2022/06/25 09:55:37;;;;;;;1999.90;999.90;;;15.40;99.90;;;;;;5014789;28;20080;-72
2022/06/25 09:58:03;;;;;;;1999.90;999.90;;;15.50;99.90;;;;;;5014820;28;20022;-81
2022/06/25 10:00:30;;;;;;;1999.90;999.90;;;15.70;99.90;;;;;;5032255;28;20026;-81
2022/06/25 10:02:57;;;;;;;1999.90;999.90;;;15.80;99.90;;;;;;5032238;28;20125;-81
2022/06/25 10:05:30;;;;;;;1999.90;999.90;;;16.00;99.90;;;;;;5032314;28;20022;-72
2022/06/25 10:08:04;;;;;;;1999.90;999.90;;;16.30;99.90;;;;;;5032153;28;20083;-72
2022/06/25 10:10:39;;;;;;;1999.90;999.90;;;16.40;99.90;;;;;;5014453;28;20116;-81
2022/06/25 10:13:06;;;;;;;1999.90;999.90;;;16.20;99.90;;;;;;5032328;28;20040;-81
2022/06/25 10:15:32;;;;;;;1999.90;999.90;;;15.80;99.90;;;;;;5031437;28;20021;-80
2022/06/25 10:18:01;;;;;;;1999.90;999.90;;;15.80;99.90;;;;;;5032138;28;20025;-72
2022/06/25 10:20:26;;;;;;;1999.90;999.90;;;15.90;99.90;;;;;;5032017;28;20484;-73
2022/06/25 10:22:54;;;;;;;1999.90;999.90;;;15.80;99.90;;;;;;5031769;28;20041;-81
2022/06/25 10:25:24;;;;;;;1999.90;999.90;;;15.70;99.90;;;;;;5032194;28;20018;-80
2022/06/25 10:27:51;;;;;;;1999.90;999.90;;;15.60;99.90;;;;;;5031993;28;20036;-80
2022/06/25 10:30:43;;;;;;;1999.90;999.90;;;15.40;99.90;;;;;;5013956;28;20109;-80
2022/06/25 10:33:09;;;;;;;1999.90;999.90;;;15.60;99.90;;;;;;5031549;28;20492;-73
2022/06/25 10:35:37;;;;;;;1999.90;999.90;;;15.50;99.90;;;;;;5032368;28;20136;-81
2022/06/25 10:38:13;;;;;;;1999.90;999.90;;;15.50;99.90;;;;;;5026868;28;20028;-80
2022/06/25 10:40:48;;;;;;;1999.90;999.90;;;15.40;99.90;;;;;;5012262;28;20084;-79
2022/06/25 10:43:35;;;;;;;1999.90;999.90;;;15.40;99.90;;;;;;5033524;28;20036;-80
2022/06/25 10:46:23;;;;;;;1999.90;999.90;;;15.30;99.90;;;;;;5024284;28;20022;-71
2022/06/25 10:49:13;;;;;;;1999.90;999.90;;;15.20;99.90;;;;;;5035517;28;20052;-78
2022/06/25 10:51:38;;;;;;;1999.90;999.90;;;15.30;99.90;;;;;;5015180;28;20045;-80
2022/06/25 10:54:06;;;;;;;1999.90;999.90;;;15.10;99.90;;;;;;5015709;28;20034;-80
2022/06/25 10:56:44;;;;;;;1999.90;999.90;;;15.20;99.90;;;;;;5024087;28;20112;-81
2022/06/25 10:59:46;;;;;;;1999.90;999.90;;;15.10;99.90;;;;;;5029897;28;20037;-82
2022/06/25 11:02:15;;;;;;;1999.90;999.90;;;15.00;99.90;;;;;;5015333;28;20485;-72
2022/06/25 11:04:49;;;;;;;1999.90;999.90;;;15.20;99.90;;;;;;5015326;28;20069;-80
2022/06/25 11:07:17;;;;;;;1999.90;999.90;;;15.60;99.90;;;;;;5015021;28;20109;-81
2022/06/25 11:10:03;;;;;;;1999.90;999.90;;;15.80;99.90;;;;;;5032926;28;20492;-81
2022/06/25 11:12:34;;;;;;;1999.90;999.90;;;15.90;99.90;;;;;;5035202;28;20429;-73
2022/06/25 11:15:07;;;;;;;1999.90;999.90;;;16.00;99.90;;;;;;5035079;28;20484;-81
2022/06/25 11:17:33;;;;;;;1999.90;999.90;;;16.10;99.90;;;;;;5034794;28;20049;-73
2022/06/25 11:20:17;;;;;;;1999.90;999.90;;;16.40;99.90;;;;;;5031784;28;20113;-81
2022/06/25 11:22:50;;;;;;;1999.90;999.90;;;16.70;99.90;;;;;;5014659;28;20453;-73
2022/06/25 11:30:49;;;;;;;1999.90;999.90;;;16.80;99.90;;;;;;5014589;28;20511;-80
2022/06/25 11:33:15;;;;;;;1999.90;999.90;;;16.60;99.90;;;;;;5014597;28;20034;-81
2022/06/25 11:35:44;;;;;;;1999.90;999.90;;;16.80;99.90;;;;;;5015064;28;20370;-80
2022/06/25 11:38:13;;;;;;;1999.90;999.90;;;16.90;99.90;;;;;;5020498;28;20029;-73
2022/06/25 11:40:39;;;;;;;1999.90;999.90;;;17.40;99.90;;;;;;5033761;28;20028;-79
2022/06/25 11:43:09;;;;;;;1999.90;999.90;;;17.30;99.90;;;;;;5028667;28;20117;-79
2022/06/25 11:45:57;;;;;;;1999.90;999.90;;;17.30;99.90;;;;;;5029984;28;20025;-79
2022/06/25 11:48:33;;;;;;;1999.90;999.90;;;17.40;99.90;;;;;;5024142;28;20083;-78
2022/06/25 11:51:01;;;;;;;1999.90;999.90;;;17.10;99.90;;;;;;5034205;28;20035;-79
2022/06/25 11:53:27;;;;;;;1999.90;999.90;;;16.90;99.90;;;;;;5032537;28;20026;-79
2022/06/25 11:56:00;;;;;;;1999.90;999.90;;;16.80;99.90;;;;;;5034181;28;20071;-79
2022/06/25 11:58:28;;;;;;;1999.90;999.90;;;16.60;99.90;;;;;;5034348;28;20061;-79
2022/06/25 12:00:59;;;;;;;1999.90;999.90;;;16.50;99.90;;;;;;5033788;28;20087;-78
2022/06/25 12:03:29;;;;;;;1999.90;999.90;;;16.80;99.90;;;;;;5033524;28;20026;-73
2022/06/25 12:05:56;;;;;;;1999.90;999.90;;;16.80;99.90;;;;;;5033645;28;20049;-80
2022/06/25 12:08:23;;;;;;;1999.90;999.90;;;16.80;99.90;;;;;;5003970;28;20454;-73
2022/06/25 12:10:49;;;;;;;1999.90;999.90;;;16.80;99.90;;;;;;5033926;28;20025;-79
2022/06/25 12:13:15;;;;;;;1999.90;999.90;;;16.80;99.90;;;;;;5034120;28;20061;-79